Weather at Mili Island Airport

Public forecast

Using degrees Celsius for public forecast. Weather courtesy of forecast.io.

Closest aviation weather report (METAR) to Mili Island Airport

Closest report is Marshall Islands International Airport, 64.9 nm (120.2 km) NNW.

2024/05/25 01:59 (retrieved 51 minutes ago)

PKMJ 250159Z 06011K 14SM SCT014 BKN045 OVC110 28/25 A2986

Closest aviation forecast (TAF) to Mili Island Airport

Forecast is more than 12 hours old.

Closest forecast is Car Nicobar Air Force Base, 4,691.1 nm (8,687.9 km) W.

2024/05/24 12:00 (retrieved 15 hours ago)

TAF VOCX 240930Z 2412/2424 23010KT 6000 -RA SCT015 BKN080 TEMPO 2412/2414 21010G20KT 4000 TSRA SCT010 SCT018 FEW025CB BKN090